Time;durP1;ratioP1;P1;durP2;ratioP2;P2;SDS_P1;SDS_P2;PMS_P1;PMS_P2;Temp;Humidity;BMP_temperature;BMP_pressure;BME280_temperature;BME280_humidity;BME280_pressure;Samples;Min_cycle;Max_cycle;Signal;HPM_P1;HPM_P2
2023/06/12 03:00:24;;;;;;;140.77;133.00;;;14.10;99.90;;;;;;5933058;23;20179;-78
2023/06/12 03:02:55;;;;;;;137.40;130.20;;;14.10;99.90;;;;;;4981342;28;20202;-79
2023/06/12 03:05:25;;;;;;;133.53;126.47;;;14.10;99.90;;;;;;4981092;28;20219;-79
2023/06/12 03:07:52;;;;;;;126.43;119.90;;;14.00;99.90;;;;;;4998753;28;20202;-79
2023/06/12 03:10:18;;;;;;;106.40;100.73;;;14.00;99.90;;;;;;4997349;28;20238;-79
2023/06/12 03:12:44;;;;;;;83.30;78.93;;;13.90;99.90;;;;;;4953352;28;20257;-78
2023/06/12 03:15:10;;;;;;;74.40;70.47;;;13.90;99.90;;;;;;4979948;23;20323;-81
2023/06/12 03:17:36;;;;;;;60.60;57.03;;;13.90;99.90;;;;;;4990847;28;20192;-81
2023/06/12 03:20:05;;;;;;;68.57;64.77;;;13.80;99.90;;;;;;4975691;28;20190;-80
2023/06/12 03:22:31;;;;;;;66.77;63.13;;;13.80;99.90;;;;;;4976541;28;20216;-80
2023/06/12 03:24:57;;;;;;;68.10;64.30;;;13.80;99.90;;;;;;4965150;28;20212;-80
2023/06/12 03:27:23;;;;;;;66.70;63.03;;;13.80;99.90;;;;;;4957286;28;20228;-81
2023/06/12 03:29:48;;;;;;;59.50;56.23;;;13.80;99.90;;;;;;4959910;28;20291;-80
2023/06/12 03:32:14;;;;;;;122.33;115.67;;;13.80;99.90;;;;;;4949084;28;20223;-81
2023/06/12 03:34:40;;;;;;;122.27;115.57;;;13.80;99.90;;;;;;4955520;28;20190;-81
2023/06/12 03:37:06;;;;;;;136.60;128.83;;;13.80;99.90;;;;;;4938245;29;20332;-81
2023/06/12 03:39:32;;;;;;;108.63;102.87;;;13.90;99.90;;;;;;4955155;28;20219;-81
2023/06/12 03:41:58;;;;;;;88.50;83.53;;;13.80;99.90;;;;;;4937986;29;20189;-80
2023/06/12 03:44:24;;;;;;;36.97;34.70;;;13.80;99.90;;;;;;4937530;29;20193;-80
2023/06/12 03:46:50;;;;;;;49.03;46.27;;;13.80;99.90;;;;;;4937060;28;20221;-79
2023/06/12 03:49:16;;;;;;;55.47;52.30;;;13.80;99.90;;;;;;4951707;28;20193;-79
2023/06/12 03:51:42;;;;;;;56.10;52.43;;;13.80;99.90;;;;;;4961030;28;20189;-81
2023/06/12 03:54:09;;;;;;;54.57;51.27;;;13.80;99.90;;;;;;4953905;28;20219;-79
2023/06/12 03:56:35;;;;;;;28.67;26.70;;;13.80;99.90;;;;;;4960015;28;20209;-81
2023/06/12 03:59:01;;;;;;;40.23;37.57;;;13.90;99.90;;;;;;4960142;28;20196;-79
2023/06/12 04:01:27;;;;;;;66.33;62.53;;;13.90;99.90;;;;;;4977479;28;20214;-79
2023/06/12 04:03:53;;;;;;;32.53;30.63;;;14.00;99.90;;;;;;4960628;28;20188;-79
2023/06/12 04:06:24;;;;;;;33.33;31.33;;;14.00;99.90;;;;;;4960964;28;20248;-80
2023/06/12 04:08:51;;;;;;;23.80;22.10;;;14.10;99.90;;;;;;4957484;28;20232;-79
2023/06/12 04:11:18;;;;;;;34.77;32.60;;;14.20;99.90;;;;;;4955507;28;20263;-79
2023/06/12 04:13:45;;;;;;;39.33;36.97;;;14.30;99.90;;;;;;4959911;28;20699;-78
2023/06/12 04:16:11;;;;;;;30.60;28.60;;;14.40;99.90;;;;;;4959567;28;20709;-80
2023/06/12 04:18:37;;;;;;;36.57;34.37;;;14.40;99.90;;;;;;4959742;28;20200;-79
2023/06/12 04:21:05;;;;;;;25.00;23.33;;;14.50;99.90;;;;;;4960292;28;20279;-80
2023/06/12 04:23:32;;;;;;;19.90;18.40;;;14.60;99.90;;;;;;4961691;28;20196;-79
2023/06/12 04:26:16;;;;;;;19.43;18.03;;;14.70;99.90;;;;;;4971403;28;20287;-79
2023/06/12 04:28:42;;;;;;;24.83;23.20;;;14.70;99.90;;;;;;4966745;28;20188;-79
2023/06/12 04:31:08;;;;;;;27.03;25.03;;;14.80;99.90;;;;;;4958080;28;20665;-79
2023/06/12 04:33:35;;;;;;;26.03;24.17;;;14.90;99.90;;;;;;4982489;28;20563;-79
2023/06/12 04:36:07;;;;;;;25.20;23.67;;;15.00;99.90;;;;;;4951234;28;20236;-79
2023/06/12 04:38:38;;;;;;;25.60;23.30;;;15.10;99.90;;;;;;4958431;28;20208;-80
2023/06/12 04:41:05;;;;;;;25.07;23.03;;;15.20;99.90;;;;;;4963560;28;20194;-80
2023/06/12 04:43:32;;;;;;;24.60;23.03;;;15.30;99.90;;;;;;4957792;28;20205;-80
2023/06/12 04:45:57;;;;;;;30.23;27.93;;;15.40;99.90;;;;;;4956091;28;20309;-80
2023/06/12 04:48:23;;;;;;;48.20;45.40;;;15.50;99.90;;;;;;4939808;29;20281;-79
2023/06/12 04:50:53;;;;;;;55.97;52.97;;;15.70;99.90;;;;;;4957535;28;20197;-79
2023/06/12 04:53:19;;;;;;;30.07;27.83;;;15.80;99.90;;;;;;4954786;28;20799;-80
2023/06/12 04:55:50;;;;;;;19.70;17.33;;;15.90;99.90;;;;;;4958947;28;20293;-80
2023/06/12 04:58:20;;;;;;;26.67;24.43;;;16.20;99.90;;;;;;4964951;28;20188;-80
2023/06/12 05:00:47;;;;;;;31.80;28.53;;;16.40;99.90;;;;;;4951415;28;20197;-79
2023/06/12 05:03:17;;;;;;;13.37;12.03;;;16.60;99.90;;;;;;4959080;28;20247;-81
2023/06/12 05:05:46;;;;;;;11.57;10.47;;;16.90;99.90;;;;;;4982454;28;20683;-81
2023/06/12 05:08:12;;;;;;;11.68;10.50;;;17.40;99.90;;;;;;4939783;29;20200;-81
2023/06/12 05:10:39;;;;;;;16.13;15.02;;;18.00;99.90;;;;;;4941107;28;20253;-81
2023/06/12 05:13:04;;;;;;;14.75;13.55;;;18.70;99.90;;;;;;4940779;29;20268;-81
2023/06/12 05:15:30;;;;;;;14.20;13.18;;;19.40;99.90;;;;;;4957282;28;20716;-81
2023/06/12 05:17:56;;;;;;;16.65;15.45;;;20.20;99.90;;;;;;4957394;28;20193;-81
2023/06/12 05:20:22;;;;;;;23.70;22.05;;;20.80;99.90;;;;;;4972760;28;20192;-81
2023/06/12 05:22:47;;;;;;;16.33;15.02;;;21.40;99.90;;;;;;4959542;28;20197;-81
2023/06/12 05:25:15;;;;;;;15.50;13.82;;;21.70;99.90;;;;;;4958984;28;20221;-81
2023/06/12 05:27:41;;;;;;;30.75;28.80;;;22.00;99.90;;;;;;4975749;28;20275;-80
2023/06/12 05:30:07;;;;;;;13.98;12.95;;;22.20;99.90;;;;;;4958765;28;20197;-80
2023/06/12 05:32:34;;;;;;;12.27;11.48;;;22.60;99.90;;;;;;4971348;28;20607;-80
2023/06/12 05:35:00;;;;;;;10.88;9.98;;;23.00;99.90;;;;;;4968727;28;20293;-81
2023/06/12 05:37:26;;;;;;;13.32;12.52;;;23.20;99.90;;;;;;4959707;28;20181;-81
2023/06/12 05:39:53;;;;;;;16.35;15.25;;;23.30;99.90;;;;;;4959135;28;20199;-81
2023/06/12 05:42:19;;;;;;;16.02;15.02;;;23.60;99.90;;;;;;4958406;28;20649;-81
2023/06/12 05:44:46;;;;;;;11.52;10.48;;;23.90;99.90;;;;;;4959177;28;20283;-81
2023/06/12 05:47:13;;;;;;;9.35;8.55;;;24.10;99.90;;;;;;4958959;28;20276;-81
2023/06/12 05:49:38;;;;;;;8.35;7.50;;;24.40;99.90;;;;;;4958991;28;20243;-81
2023/06/12 05:52:06;;;;;;;8.43;7.72;;;24.50;99.90;;;;;;4959109;28;20189;-81
2023/06/12 05:54:32;;;;;;;9.57;8.68;;;24.80;99.90;;;;;;4975775;28;20291;-79
2023/06/12 05:56:57;;;;;;;15.23;14.13;;;25.10;99.80;;;;;;4957536;28;20201;-79
2023/06/12 05:59:23;;;;;;;15.38;13.93;;;25.50;98.60;;;;;;4958084;28;20208;-79
2023/06/12 06:01:50;;;;;;;16.35;15.38;;;25.70;97.90;;;;;;4958113;28;20271;-79
2023/06/12 06:04:16;;;;;;;17.92;16.92;;;25.80;97.20;;;;;;4951611;28;20193;-80
2023/06/12 06:06:42;;;;;;;29.55;27.55;;;26.20;96.00;;;;;;4975814;28;20213;-79
2023/06/12 06:09:08;;;;;;;24.38;22.98;;;26.30;95.60;;;;;;4975105;28;20193;-78
2023/06/12 06:11:34;;;;;;;15.75;14.65;;;26.40;95.20;;;;;;4975388;28;20185;-79
2023/06/12 06:14:00;;;;;;;20.38;19.17;;;26.40;94.40;;;;;;4965800;28;20212;-79
2023/06/12 06:16:26;;;;;;;15.57;14.68;;;26.40;94.60;;;;;;4959390;28;20279;-79
2023/06/12 06:18:52;;;;;;;11.82;11.05;;;26.80;93.80;;;;;;4975624;28;20649;-79
2023/06/12 06:21:18;;;;;;;9.88;8.95;;;27.10;92.90;;;;;;4959688;28;20225;-79
2023/06/12 06:23:45;;;;;;;10.60;9.80;;;26.70;92.60;;;;;;4959435;28;20193;-79
2023/06/12 06:26:12;;;;;;;15.45;14.52;;;26.50;92.70;;;;;;4975685;28;20215;-79
2023/06/12 06:28:38;;;;;;;17.67;16.00;;;26.30;92.90;;;;;;4959644;28;20203;-79
2023/06/12 06:31:09;;;;;;;18.10;17.02;;;26.10;93.20;;;;;;4969984;28;20650;-79
2023/06/12 06:33:35;;;;;;;13.73;12.77;;;26.20;93.70;;;;;;4939383;28;20236;-80
2023/06/12 06:36:01;;;;;;;17.17;16.05;;;26.80;92.80;;;;;;4956545;28;20209;-79
2023/06/12 06:38:27;;;;;;;15.15;14.13;;;27.00;92.00;;;;;;4939184;29;20194;-78
2023/06/12 06:40:53;;;;;;;20.30;19.20;;;27.10;91.60;;;;;;4964495;28;20194;-79
2023/06/12 06:43:19;;;;;;;20.10;19.00;;;26.70;92.00;;;;;;4938797;29;20193;-79
2023/06/12 06:45:45;;;;;;;20.88;19.58;;;26.60;92.40;;;;;;4962470;28;20680;-79
2023/06/12 06:48:13;;;;;;;20.88;19.60;;;26.50;91.80;;;;;;4957202;28;20284;-79
2023/06/12 06:50:41;;;;;;;16.48;15.43;;;26.20;92.00;;;;;;4957828;28;20221;-79
2023/06/12 06:53:07;;;;;;;16.27;15.18;;;26.10;92.60;;;;;;4941354;29;20284;-78
2023/06/12 06:55:33;;;;;;;12.40;11.45;;;25.90;92.10;;;;;;4956280;28;20693;-79
2023/06/12 06:57:59;;;;;;;12.07;11.35;;;25.80;92.50;;;;;;4938530;29;20193;-79
2023/06/12 07:00:26;;;;;;;11.32;10.43;;;25.80;92.20;;;;;;4953677;28;20193;-79
2023/06/12 07:02:52;;;;;;;10.80;10.10;;;25.70;92.30;;;;;;4957783;28;20204;-80
2023/06/12 07:05:18;;;;;;;12.02;10.10;;;25.80;92.20;;;;;;4956845;28;20303;-79
2023/06/12 07:07:46;;;;;;;9.77;8.98;;;26.00;92.20;;;;;;4950560;28;20199;-81
2023/06/12 07:10:12;;;;;;;10.07;9.27;;;25.70;92.30;;;;;;4985557;28;20192;-80
2023/06/12 07:12:38;;;;;;;11.55;10.75;;;25.30;93.10;;;;;;4971937;28;20197;-80
2023/06/12 07:15:05;;;;;;;10.70;9.80;;;25.40;93.50;;;;;;4964502;28;20227;-79
2023/06/12 07:17:32;;;;;;;9.63;8.90;;;25.70;92.70;;;;;;4959609;28;20235;-81
2023/06/12 07:19:58;;;;;;;9.95;9.07;;;26.00;91.80;;;;;;4957622;28;20227;-79
2023/06/12 07:22:23;;;;;;;13.40;12.65;;;26.20;91.80;;;;;;4958461;28;20189;-79
2023/06/12 07:24:49;;;;;;;15.98;14.88;;;26.60;91.10;;;;;;4958411;28;20209;-78
2023/06/12 07:27:15;;;;;;;15.07;14.07;;;26.70;90.60;;;;;;4958206;28;20216;-78
2023/06/12 07:29:41;;;;;;;19.17;18.05;;;26.80;90.50;;;;;;4974822;28;20189;-78
2023/06/12 07:32:07;;;;;;;17.33;16.13;;;27.00;89.20;;;;;;4974642;28;20207;-79
2023/06/12 07:34:33;;;;;;;9.90;9.20;;;27.30;89.70;;;;;;4965837;28;20306;-79
2023/06/12 07:36:58;;;;;;;7.65;7.22;;;27.60;88.40;;;;;;4939707;29;20197;-79
2023/06/12 07:39:24;;;;;;;7.95;7.25;;;27.10;89.50;;;;;;4955437;28;20193;-79
2023/06/12 07:41:51;;;;;;;10.85;10.25;;;26.70;88.20;;;;;;4937457;28;20722;-79
2023/06/12 07:44:16;;;;;;;9.75;9.05;;;26.80;89.00;;;;;;4969328;28;20214;-79
2023/06/12 07:46:43;;;;;;;10.02;9.27;;;26.90;88.50;;;;;;4956731;28;20220;-79
2023/06/12 07:49:09;;;;;;;12.57;10.90;;;27.30;88.30;;;;;;4956197;28;20189;-79
2023/06/12 07:51:35;;;;;;;7.93;7.38;;;27.70;86.90;;;;;;4956352;28;20247;-79
2023/06/12 07:54:01;;;;;;;8.23;7.50;;;27.40;84.30;;;;;;4956607;28;20213;-79
2023/06/12 07:56:27;;;;;;;7.20;6.60;;;27.40;85.00;;;;;;4956382;28;20659;-79
2023/06/12 07:58:52;;;;;;;6.82;6.22;;;27.10;86.50;;;;;;4962141;28;20181;-78
2023/06/12 08:01:18;;;;;;;9.43;8.43;;;26.70;87.20;;;;;;4972877;28;20189;-78
2023/06/12 08:03:45;;;;;;;8.90;8.38;;;26.50;87.70;;;;;;4976322;28;20199;-78
2023/06/12 08:06:13;;;;;;;6.05;5.53;;;26.70;87.30;;;;;;4972359;28;20613;-78
2023/06/12 08:08:41;;;;;;;7.30;6.72;;;26.50;84.30;;;;;;4957767;28;20569;-79
2023/06/12 08:11:07;;;;;;;7.75;7.20;;;26.30;85.00;;;;;;4967940;28;20666;-80
2023/06/12 08:13:34;;;;;;;8.13;6.43;;;26.50;84.70;;;;;;4956626;28;20322;-79
2023/06/12 08:16:00;;;;;;;6.30;5.80;;;26.90;82.80;;;;;;4949857;28;20220;-79
2023/06/12 08:18:27;;;;;;;6.72;6.05;;;27.30;77.90;;;;;;4965015;28;20207;-79
2023/06/12 08:20:52;;;;;;;9.90;6.38;;;27.40;79.40;;;;;;4937883;28;20212;-79
2023/06/12 08:23:18;;;;;;;6.55;6.07;;;27.30;79.90;;;;;;4954540;28;20190;-79
2023/06/12 08:25:44;;;;;;;7.38;6.88;;;27.20;79.70;;;;;;4938233;28;20264;-80
2023/06/12 08:28:10;;;;;;;9.23;8.43;;;27.50;76.60;;;;;;4953106;28;20193;-79
2023/06/12 08:30:36;;;;;;;8.68;8.05;;;27.40;74.90;;;;;;4974506;28;20203;-79
2023/06/12 08:33:03;;;;;;;12.60;11.90;;;27.80;74.30;;;;;;4957400;28;20209;-79
2023/06/12 08:35:29;;;;;;;13.25;12.25;;;27.90;73.60;;;;;;4957640;28;20224;-78
2023/06/12 08:37:56;;;;;;;18.40;17.10;;;28.10;75.00;;;;;;4959585;28;20188;-79
2023/06/12 08:40:22;;;;;;;16.40;15.23;;;27.40;70.60;;;;;;4967991;28;20220;-79
2023/06/12 08:42:52;;;;;;;15.07;14.23;;;27.50;71.80;;;;;;4976992;28;20185;-79
2023/06/12 08:45:22;;;;;;;17.20;16.17;;;27.80;71.70;;;;;;4960124;28;20271;-79
2023/06/12 08:47:48;;;;;;;21.45;20.33;;;28.00;70.70;;;;;;4959663;28;20191;-80
2023/06/12 08:50:18;;;;;;;17.98;16.98;;;28.10;69.10;;;;;;4960564;28;20633;-79
2023/06/12 08:52:48;;;;;;;18.33;17.27;;;28.30;68.40;;;;;;4961493;28;20267;-80
2023/06/12 08:55:15;;;;;;;17.10;16.17;;;28.10;68.20;;;;;;4977039;28;20209;-79
2023/06/12 08:57:42;;;;;;;15.50;14.60;;;27.70;69.20;;;;;;4961141;28;20185;-79
2023/06/12 09:00:15;;;;;;;11.93;11.23;;;27.20;70.20;;;;;;4953134;28;20570;-80
2023/06/12 09:02:51;;;;;;;13.35;12.65;;;27.00;70.90;;;;;;4940377;28;20602;-78
2023/06/12 09:05:23;;;;;;;13.23;12.38;;;27.00;68.90;;;;;;4979384;28;20224;-78
2023/06/12 09:07:50;;;;;;;15.93;14.82;;;27.70;68.60;;;;;;4978637;28;20192;-79
2023/06/12 09:10:16;;;;;;;17.15;15.38;;;27.80;66.70;;;;;;4960149;28;20275;-82
2023/06/12 09:12:44;;;;;;;16.50;15.60;;;27.70;68.00;;;;;;4957842;28;20189;-79
2023/06/12 09:15:20;;;;;;;16.60;15.70;;;27.60;67.00;;;;;;4963291;23;20217;-81
2023/06/12 09:17:51;;;;;;;14.93;14.02;;;27.90;67.10;;;;;;4983744;28;20232;-81
2023/06/12 09:20:23;;;;;;;15.52;14.63;;;28.10;66.20;;;;;;4984276;28;20197;-81
2023/06/12 09:22:51;;;;;;;17.17;16.25;;;27.80;65.10;;;;;;4969132;28;20216;-81
2023/06/12 09:25:19;;;;;;;18.15;17.02;;;27.80;66.30;;;;;;4971253;28;20212;-81
2023/06/12 09:27:45;;;;;;;19.95;18.63;;;27.60;65.30;;;;;;4971250;28;20209;-81
2023/06/12 09:30:11;;;;;;;13.48;12.30;;;27.80;65.20;;;;;;4954180;29;20198;-81
2023/06/12 09:32:39;;;;;;;13.70;12.70;;;28.30;65.50;;;;;;4964855;28;20189;-81
2023/06/12 09:35:05;;;;;;;8.32;7.63;;;29.00;65.00;;;;;;4963561;28;20777;-81
2023/06/12 09:37:31;;;;;;;7.78;7.10;;;29.40;61.50;;;;;;4946467;28;20503;-81
2023/06/12 09:40:14;;;;;;;7.82;7.22;;;29.40;60.20;;;;;;4953589;29;20205;-80
2023/06/12 09:42:41;;;;;;;8.35;7.63;;;29.10;60.10;;;;;;4960163;28;20189;-80
2023/06/12 09:45:20;;;;;;;7.03;6.53;;;29.10;60.50;;;;;;4950058;29;20190;-81
2023/06/12 09:47:52;;;;;;;8.27;7.53;;;29.40;61.20;;;;;;4974726;28;20181;-81
2023/06/12 09:50:19;;;;;;;8.27;7.78;;;29.50;60.50;;;;;;4948250;29;20276;-81
2023/06/12 09:52:49;;;;;;;9.65;9.13;;;29.10;60.00;;;;;;4947713;28;20517;-81
2023/06/12 09:55:17;;;;;;;6.38;5.93;;;29.30;59.90;;;;;;4959347;29;20201;-80
2023/06/12 09:57:47;;;;;;;9.00;8.30;;;28.00;62.30;;;;;;4975364;28;20209;-80
2023/06/12 10:00:16;;;;;;;8.60;8.00;;;28.00;63.80;;;;;;4976688;28;20196;-80
2023/06/12 10:02:50;;;;;;;10.07;7.13;;;28.70;62.20;;;;;;4941844;28;20204;-81
2023/06/12 10:05:35;;;;;;;7.05;6.55;;;29.30;61.20;;;;;;4947603;29;20212;-81
2023/06/12 10:08:03;;;;;;;8.73;8.02;;;29.20;59.80;;;;;;4963692;28;20198;-81
2023/06/12 10:10:30;;;;;;;8.48;6.80;;;29.00;60.20;;;;;;4964012;28;20194;-81
2023/06/12 10:12:59;;;;;;;8.52;7.88;;;29.50;60.30;;;;;;4951380;29;20257;-81
2023/06/12 10:15:26;;;;;;;10.25;9.65;;;29.80;58.80;;;;;;4963891;28;20686;-81
2023/06/12 10:17:52;;;;;;;11.82;11.10;;;29.60;57.70;;;;;;4945838;28;20216;-81
2023/06/12 10:20:19;;;;;;;14.77;13.90;;;29.80;58.50;;;;;;4962695;28;20217;-81
2023/06/12 10:22:46;;;;;;;17.98;16.90;;;30.60;56.70;;;;;;4963114;28;20204;-81
2023/06/12 10:25:14;;;;;;;20.77;19.58;;;30.30;56.80;;;;;;4967285;28;20209;-81
2023/06/12 10:27:41;;;;;;;19.90;18.60;;;29.70;56.60;;;;;;4945179;28;20205;-81
2023/06/12 10:30:11;;;;;;;22.70;21.50;;;30.10;56.50;;;;;;4944254;29;20213;-81
2023/06/12 10:32:38;;;;;;;21.77;20.17;;;30.70;55.60;;;;;;4961700;28;20225;-81
2023/06/12 10:35:04;;;;;;;22.13;20.63;;;30.30;55.50;;;;;;4942995;29;20540;-81
2023/06/12 10:37:32;;;;;;;17.25;16.25;;;29.70;55.80;;;;;;4960646;28;20232;-81
2023/06/12 10:40:20;;;;;;;20.95;19.48;;;29.60;56.30;;;;;;4959983;28;20220;-81
2023/06/12 10:42:47;;;;;;;23.55;22.13;;;30.30;55.90;;;;;;4942523;28;20221;-81
2023/06/12 10:45:16;;;;;;;34.70;32.83;;;30.10;54.80;;;;;;4943046;29;20693;-81
2023/06/12 10:47:42;;;;;;;22.77;21.35;;;30.30;53.80;;;;;;4962772;28;20280;-81
2023/06/12 10:50:08;;;;;;;29.63;27.98;;;30.20;55.50;;;;;;4962129;28;20231;-82
2023/06/12 10:52:35;;;;;;;46.65;43.97;;;30.60;54.90;;;;;;4961522;28;20239;-81
2023/06/12 10:55:17;;;;;;;43.30;40.97;;;31.30;53.00;;;;;;4961562;28;20188;-81
2023/06/12 10:57:48;;;;;;;37.63;35.63;;;31.30;53.00;;;;;;4969175;28;20188;-82
2023/06/12 11:00:19;;;;;;;9.95;8.98;;;31.80;53.20;;;;;;4962016;28;20329;-81
2023/06/12 11:02:47;;;;;;;13.52;12.63;;;31.90;50.10;;;;;;4943705;28;20197;-82
2023/06/12 11:05:18;;;;;;;10.57;9.90;;;31.50;51.00;;;;;;4943923;28;20213;-82
2023/06/12 11:07:46;;;;;;;7.90;7.30;;;32.30;50.00;;;;;;4961603;28;20332;-81
2023/06/12 11:10:12;;;;;;;8.43;7.82;;;31.40;49.60;;;;;;4962653;28;20189;-81
2023/06/12 11:12:46;;;;;;;7.95;7.43;;;31.20;49.60;;;;;;4969858;28;20197;-81
2023/06/12 11:15:12;;;;;;;8.60;7.90;;;31.90;48.70;;;;;;4969751;28;20236;-82
2023/06/12 11:17:38;;;;;;;7.95;7.38;;;32.10;48.90;;;;;;4959919;28;20186;-82
2023/06/12 11:20:07;;;;;;;8.32;7.45;;;32.50;48.50;;;;;;4955090;29;20292;-82
2023/06/12 11:22:33;;;;;;;7.47;6.65;;;32.70;48.10;;;;;;4946343;28;20221;-82
2023/06/12 11:25:06;;;;;;;7.03;6.35;;;32.10;48.80;;;;;;4963155;28;20224;-82
2023/06/12 11:27:35;;;;;;;10.48;9.57;;;32.00;48.70;;;;;;4944821;28;20193;-82
2023/06/12 11:30:14;;;;;;;25.30;23.90;;;30.50;50.60;;;;;;4959434;28;20206;-81
2023/06/12 11:32:43;;;;;;;33.15;31.38;;;30.00;51.50;;;;;;4957167;28;20197;-82
2023/06/12 11:35:10;;;;;;;36.17;34.10;;;30.30;51.70;;;;;;4980471;28;20241;-82
2023/06/12 11:37:40;;;;;;;30.65;29.05;;;29.80;50.90;;;;;;4945474;28;20300;-82
2023/06/12 11:40:11;;;;;;;28.67;27.17;;;30.00;52.20;;;;;;4944652;29;20223;-80
2023/06/12 11:42:40;;;;;;;35.22;32.85;;;30.00;52.00;;;;;;4961726;28;20204;-80
2023/06/12 11:45:14;;;;;;;36.78;34.80;;;30.30;52.00;;;;;;4943265;29;20194;-80
2023/06/12 11:47:42;;;;;;;16.20;15.20;;;31.00;50.10;;;;;;4950509;29;20203;-79
2023/06/12 11:50:10;;;;;;;11.43;10.77;;;31.90;49.00;;;;;;4966810;28;20252;-80
2023/06/12 11:52:38;;;;;;;9.05;8.35;;;32.40;49.00;;;;;;4944535;29;20200;-80
2023/06/12 11:55:08;;;;;;;9.25;8.55;;;32.80;48.60;;;;;;4944476;29;20189;-80
2023/06/12 11:57:35;;;;;;;10.23;9.63;;;32.90;47.70;;;;;;4951257;28;20601;-81
2023/06/12 12:00:13;;;;;;;15.20;14.35;;;33.10;47.50;;;;;;4944046;29;20670;-80
2023/06/12 12:02:46;;;;;;;17.95;16.80;;;33.70;47.60;;;;;;4942674;28;20402;-81
2023/06/12 12:05:12;;;;;;;20.85;19.75;;;33.40;47.40;;;;;;4943136;29;20213;-81
2023/06/12 12:07:41;;;;;;;20.08;18.77;;;33.60;46.80;;;;;;4941583;28;20236;-80
2023/06/12 12:10:12;;;;;;;17.67;16.40;;;33.20;45.80;;;;;;4959063;28;20193;-79
2023/06/12 12:12:39;;;;;;;15.88;14.98;;;32.50;46.70;;;;;;4945384;28;20713;-80
2023/06/12 12:15:06;;;;;;;16.10;15.25;;;32.60;47.00;;;;;;4967398;28;20193;-81
2023/06/12 12:17:32;;;;;;;20.50;19.33;;;32.80;45.50;;;;;;4976562;28;20193;-82
2023/06/12 12:20:08;;;;;;;22.67;21.50;;;32.50;45.20;;;;;;4955619;28;20211;-80
2023/06/12 12:22:39;;;;;;;20.65;19.50;;;33.10;45.20;;;;;;4975797;28;20465;-80
2023/06/12 12:25:06;;;;;;;22.10;21.00;;;33.50;44.40;;;;;;4953066;29;20197;-80
2023/06/12 12:27:33;;;;;;;15.52;14.63;;;32.80;45.80;;;;;;4973400;28;20185;-80
2023/06/12 12:29:59;;;;;;;17.10;15.93;;;32.30;46.80;;;;;;4962858;29;20189;-80
2023/06/12 12:32:25;;;;;;;16.95;15.75;;;32.50;47.10;;;;;;4978964;28;20193;-80
2023/06/12 12:34:51;;;;;;;15.45;14.35;;;32.70;46.10;;;;;;4950069;28;20221;-81
2023/06/12 12:37:16;;;;;;;18.65;17.60;;;32.60;46.40;;;;;;4965388;28;20209;-81
2023/06/12 12:39:42;;;;;;;23.00;21.48;;;32.90;45.80;;;;;;4948297;28;20186;-81
2023/06/12 12:42:08;;;;;;;20.75;19.42;;;33.70;45.50;;;;;;4948110;29;20182;-81
2023/06/12 12:44:34;;;;;;;16.17;15.30;;;34.40;43.90;;;;;;4965107;28;20194;-81
2023/06/12 12:46:59;;;;;;;15.20;14.15;;;34.70;43.60;;;;;;4947510;29;20670;-80
2023/06/12 12:49:25;;;;;;;10.65;9.90;;;34.70;43.30;;;;;;4947904;29;20193;-81
2023/06/12 12:51:51;;;;;;;10.85;10.15;;;34.50;42.30;;;;;;4946954;28;20629;-80
2023/06/12 12:54:17;;;;;;;13.77;12.85;;;35.10;42.10;;;;;;4947781;29;20353;-81
2023/06/12 12:56:43;;;;;;;13.38;12.63;;;34.60;42.20;;;;;;4946087;28;20503;-81
2023/06/12 12:59:09;;;;;;;20.10;18.98;;;33.80;43.30;;;;;;4946402;29;20198;-80
2023/06/12 13:01:35;;;;;;;22.75;21.45;;;32.90;43.40;;;;;;4962817;28;20200;-81
2023/06/12 13:04:00;;;;;;;24.58;23.17;;;33.10;43.50;;;;;;4945445;29;20189;-81
2023/06/12 13:06:27;;;;;;;25.48;24.08;;;32.70;43.60;;;;;;4951263;29;20214;-81
2023/06/12 13:08:52;;;;;;;20.25;19.15;;;33.10;44.10;;;;;;4970642;28;20215;-80
2023/06/12 13:11:19;;;;;;;19.30;18.05;;;33.40;43.10;;;;;;4951384;29;20194;-81
2023/06/12 13:13:44;;;;;;;22.38;21.20;;;33.40;43.00;;;;;;4954961;28;20213;-81
2023/06/12 13:16:11;;;;;;;20.08;18.35;;;33.70;43.00;;;;;;4962962;28;20233;-81
2023/06/12 13:18:37;;;;;;;20.20;19.08;;;32.60;42.80;;;;;;4962369;28;20193;-81
2023/06/12 13:21:03;;;;;;;23.02;21.73;;;32.50;43.40;;;;;;4944837;28;20193;-81
2023/06/12 13:23:29;;;;;;;16.63;15.38;;;33.10;43.30;;;;;;4952296;28;20225;-80
2023/06/12 13:25:54;;;;;;;9.20;8.57;;;34.00;42.20;;;;;;4966655;28;20218;-81
2023/06/12 13:28:21;;;;;;;7.78;7.28;;;35.10;40.50;;;;;;4945114;29;20280;-80
2023/06/12 13:30:47;;;;;;;6.80;6.28;;;35.90;40.40;;;;;;4946180;28;20206;-80
2023/06/12 13:33:13;;;;;;;9.13;8.20;;;35.90;40.90;;;;;;4947041;29;20221;-80
2023/06/12 13:35:39;;;;;;;7.07;6.68;;;35.50;41.60;;;;;;4947398;28;20214;-80
2023/06/12 13:38:05;;;;;;;18.80;17.77;;;35.60;41.00;;;;;;4969568;28;20220;-80
2023/06/12 13:40:31;;;;;;;23.20;21.98;;;33.30;41.70;;;;;;4968258;28;20273;-80
2023/06/12 13:42:57;;;;;;;17.33;16.42;;;32.50;42.50;;;;;;4946624;29;20209;-81
2023/06/12 13:45:22;;;;;;;14.15;13.23;;;33.10;41.80;;;;;;4963672;28;20213;-81
2023/06/12 13:47:48;;;;;;;15.15;14.15;;;34.00;41.40;;;;;;4945520;28;20463;-80
2023/06/12 13:50:14;;;;;;;17.20;16.27;;;34.20;41.30;;;;;;4962123;28;20196;-80
2023/06/12 13:52:40;;;;;;;16.10;15.23;;;33.70;41.20;;;;;;4945397;28;20270;-81
2023/06/12 13:55:06;;;;;;;13.95;13.10;;;33.60;40.60;;;;;;4962194;28;20185;-80
2023/06/12 13:57:33;;;;;;;12.50;11.80;;;33.70;41.10;;;;;;4946293;28;20193;-81
2023/06/12 13:59:58;;;;;;;9.55;8.85;;;34.50;40.50;;;;;;4965415;28;20205;-81
2023/06/12 14:02:24;;;;;;;6.15;5.57;;;34.60;39.80;;;;;;4962501;28;20185;-81
2023/06/12 14:04:51;;;;;;;11.07;10.25;;;35.30;39.40;;;;;;4962006;28;20729;-80
2023/06/12 14:07:17;;;;;;;24.25;22.92;;;34.30;40.20;;;;;;4947085;29;20212;-80
2023/06/12 14:09:43;;;;;;;25.58;24.13;;;32.80;42.30;;;;;;4951711;28;20683;-80
2023/06/12 14:12:09;;;;;;;20.60;19.40;;;33.10;41.90;;;;;;4946106;29;20548;-80
2023/06/12 14:14:35;;;;;;;14.82;13.98;;;33.60;41.90;;;;;;4963468;28;20234;-81
2023/06/12 14:17:00;;;;;;;17.02;15.98;;;34.00;41.00;;;;;;4962364;28;20664;-80
2023/06/12 14:19:27;;;;;;;17.80;16.70;;;33.80;40.60;;;;;;4946194;29;20264;-80
2023/06/12 14:21:52;;;;;;;14.15;13.07;;;33.60;41.60;;;;;;4945701;28;20193;-81
2023/06/12 14:24:18;;;;;;;7.00;6.35;;;34.80;41.10;;;;;;4945292;29;20186;-80
2023/06/12 14:26:44;;;;;;;5.75;5.22;;;35.20;39.50;;;;;;4944857;28;20241;-80
2023/06/12 14:29:09;;;;;;;7.15;5.88;;;35.80;38.30;;;;;;4943267;29;20217;-80
2023/06/12 14:31:35;;;;;;;6.72;5.07;;;35.00;38.50;;;;;;4943582;28;20205;-80
2023/06/12 14:34:02;;;;;;;6.13;5.63;;;34.80;39.40;;;;;;4961078;28;20237;-81
2023/06/12 14:36:28;;;;;;;7.28;6.63;;;34.90;39.20;;;;;;4942943;29;20220;-80
2023/06/12 14:38:54;;;;;;;11.15;10.45;;;34.20;39.30;;;;;;4943493;29;20185;-80
2023/06/12 14:41:20;;;;;;;18.60;17.60;;;33.60;39.60;;;;;;4948957;29;20628;-80
2023/06/12 14:43:46;;;;;;;19.63;18.13;;;32.40;40.50;;;;;;4948423;28;20204;-80
2023/06/12 14:46:11;;;;;;;16.73;15.85;;;32.40;41.10;;;;;;4967280;28;20217;-80
2023/06/12 14:48:37;;;;;;;10.07;9.48;;;33.10;40.30;;;;;;4946492;28;20190;-79
2023/06/12 14:51:03;;;;;;;6.80;6.07;;;34.00;38.10;;;;;;4958635;29;20221;-80
2023/06/12 14:53:29;;;;;;;6.22;5.72;;;34.70;37.30;;;;;;4952633;28;20213;-80
2023/06/12 14:55:56;;;;;;;8.55;5.95;;;35.00;37.50;;;;;;4972528;28;20237;-79
2023/06/12 14:58:22;;;;;;;5.68;5.18;;;34.60;38.30;;;;;;4975086;28;20249;-79
2023/06/12 15:00:48;;;;;;;6.28;5.82;;;35.10;37.80;;;;;;4973832;28;20230;-79
2023/06/12 15:03:14;;;;;;;12.43;11.48;;;34.30;38.40;;;;;;4968762;28;20240;-80
2023/06/12 15:05:40;;;;;;;12.25;11.48;;;33.50;39.60;;;;;;4962299;28;20240;-80
2023/06/12 15:08:05;;;;;;;11.40;10.48;;;33.40;39.80;;;;;;4944272;29;20240;-80
2023/06/12 15:10:31;;;;;;;10.15;9.55;;;33.80;39.40;;;;;;4944983;29;20194;-80
2023/06/12 15:12:58;;;;;;;12.32;11.50;;;34.20;39.10;;;;;;4943821;29;20245;-79
2023/06/12 15:15:24;;;;;;;13.52;12.60;;;33.80;39.70;;;;;;4942769;29;20245;-80
2023/06/12 15:17:50;;;;;;;10.00;9.40;;;33.40;40.00;;;;;;4939284;28;20185;-80
2023/06/12 15:20:17;;;;;;;6.35;5.85;;;34.00;39.50;;;;;;4956330;28;20194;-80
2023/06/12 15:22:42;;;;;;;7.90;6.25;;;34.70;38.80;;;;;;4939586;28;20189;-80
2023/06/12 15:25:09;;;;;;;7.43;6.72;;;35.40;37.70;;;;;;4939638;29;20592;-79
2023/06/12 15:27:35;;;;;;;7.28;6.88;;;35.70;38.40;;;;;;4956255;28;20285;-79
2023/06/12 15:30:00;;;;;;;8.73;7.78;;;35.70;38.00;;;;;;4944271;29;20682;-79